sensor_id;sensor_type;location;lat;lon;timestamp;temperature;humidity
49385;DHT22;36795;45.028;38.968;2023-12-22T00:01:47;13.80;64.00
49385;DHT22;36795;45.028;38.968;2023-12-22T00:04:33;13.80;64.30
49385;DHT22;36795;45.028;38.968;2023-12-22T00:07:19;13.70;64.60
49385;DHT22;36795;45.028;38.968;2023-12-22T00:10:09;13.70;64.80
49385;DHT22;36795;45.028;38.968;2023-12-22T00:12:55;13.60;65.00
49385;DHT22;36795;45.028;38.968;2023-12-22T00:15:41;13.50;65.30
49385;DHT22;36795;45.028;38.968;2023-12-22T00:18:30;13.50;65.70
49385;DHT22;36795;45.028;38.968;2023-12-22T00:21:17;13.40;66.00
49385;DHT22;36795;45.028;38.968;2023-12-22T00:24:03;13.40;66.60
49385;DHT22;36795;45.028;38.968;2023-12-22T00:26:50;13.30;67.00
49385;DHT22;36795;45.028;38.968;2023-12-22T00:29:36;13.30;67.20
49385;DHT22;36795;45.028;38.968;2023-12-22T00:32:23;13.30;67.40
49385;DHT22;36795;45.028;38.968;2023-12-22T00:35:09;13.30;67.80
49385;DHT22;36795;45.028;38.968;2023-12-22T00:37:55;13.20;68.10
49385;DHT22;36795;45.028;38.968;2023-12-22T00:40:41;13.20;68.40
49385;DHT22;36795;45.028;38.968;2023-12-22T00:43:27;13.10;68.40
49385;DHT22;36795;45.028;38.968;2023-12-22T00:46:13;13.10;68.70
49385;DHT22;36795;45.028;38.968;2023-12-22T00:49:02;13.10;69.00
49385;DHT22;36795;45.028;38.968;2023-12-22T00:51:48;13.10;69.10
49385;DHT22;36795;45.028;38.968;2023-12-22T00:54:34;13.10;69.10
49385;DHT22;36795;45.028;38.968;2023-12-22T00:57:20;13.00;69.40
49385;DHT22;36795;45.028;38.968;2023-12-22T01:00:07;13.10;70.10
49385;DHT22;36795;45.028;38.968;2023-12-22T01:02:56;13.00;70.10
49385;DHT22;36795;45.028;38.968;2023-12-22T01:05:42;13.00;70.20
49385;DHT22;36795;45.028;38.968;2023-12-22T01:08:27;13.00;70.40
49385;DHT22;36795;45.028;38.968;2023-12-22T01:11:14;12.90;70.60
49385;DHT22;36795;45.028;38.968;2023-12-22T01:14:00;12.90;70.70
49385;DHT22;36795;45.028;38.968;2023-12-22T01:16:46;12.90;71.00
49385;DHT22;36795;45.028;38.968;2023-12-22T01:19:32;12.90;71.20
49385;DHT22;36795;45.028;38.968;2023-12-22T01:22:18;12.90;71.40
49385;DHT22;36795;45.028;38.968;2023-12-22T01:25:04;12.90;71.40
49385;DHT22;36795;45.028;38.968;2023-12-22T01:27:51;12.90;71.60
49385;DHT22;36795;45.028;38.968;2023-12-22T01:30:37;12.90;72.10
49385;DHT22;36795;45.028;38.968;2023-12-22T01:33:23;12.90;72.10
49385;DHT22;36795;45.028;38.968;2023-12-22T01:36:09;12.90;72.40
49385;DHT22;36795;45.028;38.968;2023-12-22T01:38:55;12.80;72.60
49385;DHT22;36795;45.028;38.968;2023-12-22T01:41:41;12.80;72.80
49385;DHT22;36795;45.028;38.968;2023-12-22T01:44:27;12.80;73.00
49385;DHT22;36795;45.028;38.968;2023-12-22T01:47:14;12.80;73.20
49385;DHT22;36795;45.028;38.968;2023-12-22T01:50:00;12.80;73.50
49385;DHT22;36795;45.028;38.968;2023-12-22T01:52:47;12.80;73.60
49385;DHT22;36795;45.028;38.968;2023-12-22T01:55:34;12.80;73.90
49385;DHT22;36795;45.028;38.968;2023-12-22T01:58:20;12.80;74.10
49385;DHT22;36795;45.028;38.968;2023-12-22T02:01:08;12.80;74.00
49385;DHT22;36795;45.028;38.968;2023-12-22T02:03:54;12.80;74.20
49385;DHT22;36795;45.028;38.968;2023-12-22T02:06:42;12.80;74.90
49385;DHT22;36795;45.028;38.968;2023-12-22T02:09:28;12.80;74.30
49385;DHT22;36795;45.028;38.968;2023-12-22T02:12:14;12.80;74.40
49385;DHT22;36795;45.028;38.968;2023-12-22T02:15:01;12.80;74.50
49385;DHT22;36795;45.028;38.968;2023-12-22T02:17:58;12.90;74.60
49385;DHT22;36795;45.028;38.968;2023-12-22T02:20:44;12.90;74.40
49385;DHT22;36795;45.028;38.968;2023-12-22T02:23:30;12.80;74.30
49385;DHT22;36795;45.028;38.968;2023-12-22T02:26:29;12.80;74.70
49385;DHT22;36795;45.028;38.968;2023-12-22T02:29:21;12.80;75.00
49385;DHT22;36795;45.028;38.968;2023-12-22T02:32:14;12.80;75.20
49385;DHT22;36795;45.028;38.968;2023-12-22T02:35:07;12.80;75.60
49385;DHT22;36795;45.028;38.968;2023-12-22T02:37:58;12.80;75.70
49385;DHT22;36795;45.028;38.968;2023-12-22T02:40:45;12.80;76.20
49385;DHT22;36795;45.028;38.968;2023-12-22T02:43:32;12.70;76.30
49385;DHT22;36795;45.028;38.968;2023-12-22T02:46:18;12.70;76.80
49385;DHT22;36795;45.028;38.968;2023-12-22T02:49:04;12.70;76.90
49385;DHT22;36795;45.028;38.968;2023-12-22T02:51:50;12.70;77.30
49385;DHT22;36795;45.028;38.968;2023-12-22T02:54:37;12.60;77.50
49385;DHT22;36795;45.028;38.968;2023-12-22T02:57:25;12.60;77.80
49385;DHT22;36795;45.028;38.968;2023-12-22T03:00:12;12.60;78.20
49385;DHT22;36795;45.028;38.968;2023-12-22T03:02:58;12.60;78.40
49385;DHT22;36795;45.028;38.968;2023-12-22T03:05:44;12.60;78.60
49385;DHT22;36795;45.028;38.968;2023-12-22T03:08:29;12.60;78.80
49385;DHT22;36795;45.028;38.968;2023-12-22T03:11:16;12.50;79.20
49385;DHT22;36795;45.028;38.968;2023-12-22T03:14:02;12.60;79.30
49385;DHT22;36795;45.028;38.968;2023-12-22T03:16:48;12.60;79.50
49385;DHT22;36795;45.028;38.968;2023-12-22T03:19:34;12.60;79.50
49385;DHT22;36795;45.028;38.968;2023-12-22T03:22:20;12.60;79.70
49385;DHT22;36795;45.028;38.968;2023-12-22T03:25:06;12.50;79.80
49385;DHT22;36795;45.028;38.968;2023-12-22T03:27:53;12.50;79.90
49385;DHT22;36795;45.028;38.968;2023-12-22T03:30:38;12.50;80.00
49385;DHT22;36795;45.028;38.968;2023-12-22T03:33:25;12.50;80.00
49385;DHT22;36795;45.028;38.968;2023-12-22T03:36:11;12.50;80.10
49385;DHT22;36795;45.028;38.968;2023-12-22T03:38:57;12.50;80.10
49385;DHT22;36795;45.028;38.968;2023-12-22T03:41:43;12.60;80.40
49385;DHT22;36795;45.028;38.968;2023-12-22T03:44:29;12.60;80.70
49385;DHT22;36795;45.028;38.968;2023-12-22T03:47:15;12.50;80.70
49385;DHT22;36795;45.028;38.968;2023-12-22T03:50:01;12.50;80.80
49385;DHT22;36795;45.028;38.968;2023-12-22T03:52:47;12.50;81.00
49385;DHT22;36795;45.028;38.968;2023-12-22T03:55:34;12.60;81.00
49385;DHT22;36795;45.028;38.968;2023-12-22T03:58:19;12.60;80.80
49385;DHT22;36795;45.028;38.968;2023-12-22T04:01:06;12.60;81.00
49385;DHT22;36795;45.028;38.968;2023-12-22T04:03:55;12.60;81.20
49385;DHT22;36795;45.028;38.968;2023-12-22T04:06:41;12.60;81.20
49385;DHT22;36795;45.028;38.968;2023-12-22T04:09:27;12.60;81.20
49385;DHT22;36795;45.028;38.968;2023-12-22T04:12:13;12.60;81.20
49385;DHT22;36795;45.028;38.968;2023-12-22T04:15:00;12.60;81.30
49385;DHT22;36795;45.028;38.968;2023-12-22T04:17:45;12.60;81.60
49385;DHT22;36795;45.028;38.968;2023-12-22T04:20:31;12.60;81.60
49385;DHT22;36795;45.028;38.968;2023-12-22T04:23:17;12.50;81.60
49385;DHT22;36795;45.028;38.968;2023-12-22T04:26:04;12.50;81.70
49385;DHT22;36795;45.028;38.968;2023-12-22T04:28:50;12.50;81.90
49385;DHT22;36795;45.028;38.968;2023-12-22T04:31:36;12.50;82.00
49385;DHT22;36795;45.028;38.968;2023-12-22T04:34:22;12.50;82.10
49385;DHT22;36795;45.028;38.968;2023-12-22T04:37:09;12.50;82.20
49385;DHT22;36795;45.028;38.968;2023-12-22T04:39:55;12.40;82.40
49385;DHT22;36795;45.028;38.968;2023-12-22T04:42:42;12.40;82.70
49385;DHT22;36795;45.028;38.968;2023-12-22T04:45:27;12.40;82.90
49385;DHT22;36795;45.028;38.968;2023-12-22T04:48:14;12.30;82.90
49385;DHT22;36795;45.028;38.968;2023-12-22T04:51:00;12.30;83.00
49385;DHT22;36795;45.028;38.968;2023-12-22T04:53:46;12.30;83.10
49385;DHT22;36795;45.028;38.968;2023-12-22T04:56:32;12.30;83.30
49385;DHT22;36795;45.028;38.968;2023-12-22T04:59:18;12.30;83.40
49385;DHT22;36795;45.028;38.968;2023-12-22T05:02:04;12.30;83.50
49385;DHT22;36795;45.028;38.968;2023-12-22T05:04:51;12.30;83.70
49385;DHT22;36795;45.028;38.968;2023-12-22T05:07:36;12.30;83.90
49385;DHT22;36795;45.028;38.968;2023-12-22T05:10:29;12.30;84.50
49385;DHT22;36795;45.028;38.968;2023-12-22T05:13:15;12.40;84.30
49385;DHT22;36795;45.028;38.968;2023-12-22T05:16:01;12.30;84.20
49385;DHT22;36795;45.028;38.968;2023-12-22T05:18:47;12.30;84.40
49385;DHT22;36795;45.028;38.968;2023-12-22T05:21:35;12.30;84.70
49385;DHT22;36795;45.028;38.968;2023-12-22T05:24:21;12.20;84.80
49385;DHT22;36795;45.028;38.968;2023-12-22T05:27:08;12.20;85.00
49385;DHT22;36795;45.028;38.968;2023-12-22T05:29:54;12.20;85.60
49385;DHT22;36795;45.028;38.968;2023-12-22T05:32:40;12.20;85.20
49385;DHT22;36795;45.028;38.968;2023-12-22T05:35:27;12.20;85.20
49385;DHT22;36795;45.028;38.968;2023-12-22T05:38:14;12.30;85.40
49385;DHT22;36795;45.028;38.968;2023-12-22T05:41:01;12.20;85.70
49385;DHT22;36795;45.028;38.968;2023-12-22T05:43:47;12.20;85.90
49385;DHT22;36795;45.028;38.968;2023-12-22T05:46:39;12.30;86.20
49385;DHT22;36795;45.028;38.968;2023-12-22T05:49:25;12.30;86.20
49385;DHT22;36795;45.028;38.968;2023-12-22T05:52:12;12.30;86.10
49385;DHT22;36795;45.028;38.968;2023-12-22T05:55:02;12.30;85.90
49385;DHT22;36795;45.028;38.968;2023-12-22T05:57:48;12.30;85.60
49385;DHT22;36795;45.028;38.968;2023-12-22T06:00:35;12.20;85.20
49385;DHT22;36795;45.028;38.968;2023-12-22T06:03:22;12.20;85.10
49385;DHT22;36795;45.028;38.968;2023-12-22T06:06:08;12.20;84.80
49385;DHT22;36795;45.028;38.968;2023-12-22T06:08:54;12.20;84.40
49385;DHT22;36795;45.028;38.968;2023-12-22T06:11:40;12.20;84.10
49385;DHT22;36795;45.028;38.968;2023-12-22T06:14:26;12.20;83.60
49385;DHT22;36795;45.028;38.968;2023-12-22T06:17:12;12.30;83.10
49385;DHT22;36795;45.028;38.968;2023-12-22T06:19:58;12.40;82.70
49385;DHT22;36795;45.028;38.968;2023-12-22T06:22:44;12.50;82.20
49385;DHT22;36795;45.028;38.968;2023-12-22T06:25:30;12.50;81.90
49385;DHT22;36795;45.028;38.968;2023-12-22T06:28:16;12.60;81.60
49385;DHT22;36795;45.028;38.968;2023-12-22T06:31:03;12.70;81.20
49385;DHT22;36795;45.028;38.968;2023-12-22T06:33:50;12.80;80.70
49385;DHT22;36795;45.028;38.968;2023-12-22T06:36:37;12.80;80.50
49385;DHT22;36795;45.028;38.968;2023-12-22T06:39:22;12.90;80.30
49385;DHT22;36795;45.028;38.968;2023-12-22T06:42:09;12.80;79.90
49385;DHT22;36795;45.028;38.968;2023-12-22T06:44:59;12.80;80.00
49385;DHT22;36795;45.028;38.968;2023-12-22T06:47:45;12.80;79.80
49385;DHT22;36795;45.028;38.968;2023-12-22T06:50:31;12.80;79.80
49385;DHT22;36795;45.028;38.968;2023-12-22T06:53:17;12.70;79.50
49385;DHT22;36795;45.028;38.968;2023-12-22T06:56:18;12.70;79.50
49385;DHT22;36795;45.028;38.968;2023-12-22T06:59:04;12.80;79.30
49385;DHT22;36795;45.028;38.968;2023-12-22T07:01:49;12.80;78.60
49385;DHT22;36795;45.028;38.968;2023-12-22T07:07:59;12.80;77.50
49385;DHT22;36795;45.028;38.968;2023-12-22T07:10:46;12.90;77.60
49385;DHT22;36795;45.028;38.968;2023-12-22T07:13:32;12.90;77.10
49385;DHT22;36795;45.028;38.968;2023-12-22T07:16:18;12.90;77.00
49385;DHT22;36795;45.028;38.968;2023-12-22T07:19:04;12.90;76.80
49385;DHT22;36795;45.028;38.968;2023-12-22T07:21:51;12.90;76.30
49385;DHT22;36795;45.028;38.968;2023-12-22T07:24:36;12.80;76.60
49385;DHT22;36795;45.028;38.968;2023-12-22T07:27:23;12.70;76.70
49385;DHT22;36795;45.028;38.968;2023-12-22T07:30:09;12.70;76.80
49385;DHT22;36795;45.028;38.968;2023-12-22T07:32:58;12.70;76.80
49385;DHT22;36795;45.028;38.968;2023-12-22T07:35:44;12.60;77.00
49385;DHT22;36795;45.028;38.968;2023-12-22T07:38:30;12.60;77.10
49385;DHT22;36795;45.028;38.968;2023-12-22T07:41:16;12.60;77.00
49385;DHT22;36795;45.028;38.968;2023-12-22T07:44:02;12.60;77.00
49385;DHT22;36795;45.028;38.968;2023-12-22T07:46:58;12.60;76.80
49385;DHT22;36795;45.028;38.968;2023-12-22T07:49:46;12.70;76.70
49385;DHT22;36795;45.028;38.968;2023-12-22T07:52:35;12.70;76.70
49385;DHT22;36795;45.028;38.968;2023-12-22T07:55:25;12.80;76.50
49385;DHT22;36795;45.028;38.968;2023-12-22T07:58:11;12.90;76.30
49385;DHT22;36795;45.028;38.968;2023-12-22T08:00:59;13.00;76.00
49385;DHT22;36795;45.028;38.968;2023-12-22T08:03:45;13.10;75.70
49385;DHT22;36795;45.028;38.968;2023-12-22T08:06:31;13.20;75.30
49385;DHT22;36795;45.028;38.968;2023-12-22T08:09:17;13.30;74.80
49385;DHT22;36795;45.028;38.968;2023-12-22T08:12:03;13.30;74.00
49385;DHT22;36795;45.028;38.968;2023-12-22T08:14:50;13.30;73.60
49385;DHT22;36795;45.028;38.968;2023-12-22T08:17:36;13.30;73.20
49385;DHT22;36795;45.028;38.968;2023-12-22T08:20:23;13.40;72.80
49385;DHT22;36795;45.028;38.968;2023-12-22T08:23:09;13.60;72.30
49385;DHT22;36795;45.028;38.968;2023-12-22T08:25:55;13.80;71.40
49385;DHT22;36795;45.028;38.968;2023-12-22T08:28:43;14.00;71.00
49385;DHT22;36795;45.028;38.968;2023-12-22T08:31:29;14.30;70.20
49385;DHT22;36795;45.028;38.968;2023-12-22T08:34:15;14.70;69.20
49385;DHT22;36795;45.028;38.968;2023-12-22T08:37:01;14.80;67.50
49385;DHT22;36795;45.028;38.968;2023-12-22T08:39:47;15.00;66.90
49385;DHT22;36795;45.028;38.968;2023-12-22T08:42:35;15.10;66.00
49385;DHT22;36795;45.028;38.968;2023-12-22T08:45:21;15.10;65.30
49385;DHT22;36795;45.028;38.968;2023-12-22T08:48:08;15.10;65.20
49385;DHT22;36795;45.028;38.968;2023-12-22T08:50:54;15.10;64.60
49385;DHT22;36795;45.028;38.968;2023-12-22T08:53:40;14.90;64.10
49385;DHT22;36795;45.028;38.968;2023-12-22T08:56:26;14.70;64.90
49385;DHT22;36795;45.028;38.968;2023-12-22T08:59:12;14.60;65.50
49385;DHT22;36795;45.028;38.968;2023-12-22T09:01:58;14.50;66.10
49385;DHT22;36795;45.028;38.968;2023-12-22T09:04:45;14.40;66.60
49385;DHT22;36795;45.028;38.968;2023-12-22T09:07:31;14.30;67.00
49385;DHT22;36795;45.028;38.968;2023-12-22T09:10:17;14.30;67.30
49385;DHT22;36795;45.028;38.968;2023-12-22T09:13:03;14.50;67.40
49385;DHT22;36795;45.028;38.968;2023-12-22T09:15:49;14.70;67.10
49385;DHT22;36795;45.028;38.968;2023-12-22T09:18:36;14.90;66.70
49385;DHT22;36795;45.028;38.968;2023-12-22T09:21:22;14.90;66.40
49385;DHT22;36795;45.028;38.968;2023-12-22T09:24:08;15.20;66.10
49385;DHT22;36795;45.028;38.968;2023-12-22T09:26:55;15.40;65.30
49385;DHT22;36795;45.028;38.968;2023-12-22T09:29:41;15.60;64.80
49385;DHT22;36795;45.028;38.968;2023-12-22T09:32:27;15.70;64.30
49385;DHT22;36795;45.028;38.968;2023-12-22T09:35:14;15.80;63.80
49385;DHT22;36795;45.028;38.968;2023-12-22T09:38:04;16.10;63.40
49385;DHT22;36795;45.028;38.968;2023-12-22T09:40:51;16.40;62.50
49385;DHT22;36795;45.028;38.968;2023-12-22T09:43:37;16.70;61.70
49385;DHT22;36795;45.028;38.968;2023-12-22T09:46:25;17.00;60.80
49385;DHT22;36795;45.028;38.968;2023-12-22T09:49:13;17.40;60.00
49385;DHT22;36795;45.028;38.968;2023-12-22T09:52:01;17.50;59.00
49385;DHT22;36795;45.028;38.968;2023-12-22T09:54:49;17.50;59.10
49385;DHT22;36795;45.028;38.968;2023-12-22T09:57:36;17.80;58.50
49385;DHT22;36795;45.028;38.968;2023-12-22T10:00:24;18.60;57.20
49385;DHT22;36795;45.028;38.968;2023-12-22T10:03:12;19.10;55.40
49385;DHT22;36795;45.028;38.968;2023-12-22T10:05:59;19.10;54.90
49385;DHT22;36795;45.028;38.968;2023-12-22T10:08:47;18.50;55.20
49385;DHT22;36795;45.028;38.968;2023-12-22T10:11:39;17.80;57.10
49385;DHT22;36795;45.028;38.968;2023-12-22T10:14:27;17.20;58.10
49385;DHT22;36795;45.028;38.968;2023-12-22T10:17:17;16.80;59.40
49385;DHT22;36795;45.028;38.968;2023-12-22T10:20:04;16.90;59.90
49385;DHT22;36795;45.028;38.968;2023-12-22T10:22:50;17.10;59.90
49385;DHT22;36795;45.028;38.968;2023-12-22T10:25:36;17.00;59.70
49385;DHT22;36795;45.028;38.968;2023-12-22T10:28:27;16.70;60.40
49385;DHT22;36795;45.028;38.968;2023-12-22T10:31:13;16.50;61.40
49385;DHT22;36795;45.028;38.968;2023-12-22T10:33:59;16.40;61.90
49385;DHT22;36795;45.028;38.968;2023-12-22T10:36:45;16.20;62.40
49385;DHT22;36795;45.028;38.968;2023-12-22T10:39:32;16.10;63.10
49385;DHT22;36795;45.028;38.968;2023-12-22T10:42:19;16.00;63.30
49385;DHT22;36795;45.028;38.968;2023-12-22T10:45:06;16.00;63.30
49385;DHT22;36795;45.028;38.968;2023-12-22T10:47:52;16.00;63.30
49385;DHT22;36795;45.028;38.968;2023-12-22T10:50:40;15.90;63.10
49385;DHT22;36795;45.028;38.968;2023-12-22T10:53:27;15.90;63.10
49385;DHT22;36795;45.028;38.968;2023-12-22T10:56:13;15.90;63.00
49385;DHT22;36795;45.028;38.968;2023-12-22T10:59:02;15.90;62.40
49385;DHT22;36795;45.028;38.968;2023-12-22T11:01:52;15.80;62.50
49385;DHT22;36795;45.028;38.968;2023-12-22T11:04:40;15.70;62.80
49385;DHT22;36795;45.028;38.968;2023-12-22T11:07:28;15.70;63.00
49385;DHT22;36795;45.028;38.968;2023-12-22T11:10:20;15.70;63.30
49385;DHT22;36795;45.028;38.968;2023-12-22T11:13:08;15.60;63.40
49385;DHT22;36795;45.028;38.968;2023-12-22T11:15:55;15.60;63.50
49385;DHT22;36795;45.028;38.968;2023-12-22T11:18:42;15.60;63.60
49385;DHT22;36795;45.028;38.968;2023-12-22T11:21:30;15.60;63.70
49385;DHT22;36795;45.028;38.968;2023-12-22T11:24:16;15.60;63.70
49385;DHT22;36795;45.028;38.968;2023-12-22T11:27:03;15.50;63.80
49385;DHT22;36795;45.028;38.968;2023-12-22T11:29:50;15.60;63.90
49385;DHT22;36795;45.028;38.968;2023-12-22T11:32:37;15.50;63.50
49385;DHT22;36795;45.028;38.968;2023-12-22T11:35:24;15.50;63.20
49385;DHT22;36795;45.028;38.968;2023-12-22T11:38:12;15.40;62.10
49385;DHT22;36795;45.028;38.968;2023-12-22T11:41:00;15.40;62.10
49385;DHT22;36795;45.028;38.968;2023-12-22T11:43:47;15.40;62.20
49385;DHT22;36795;45.028;38.968;2023-12-22T11:46:33;15.40;62.10
49385;DHT22;36795;45.028;38.968;2023-12-22T11:49:20;15.30;61.40
49385;DHT22;36795;45.028;38.968;2023-12-22T11:52:18;15.30;61.40
49385;DHT22;36795;45.028;38.968;2023-12-22T11:55:05;15.30;61.40
49385;DHT22;36795;45.028;38.968;2023-12-22T11:57:51;15.30;61.10
49385;DHT22;36795;45.028;38.968;2023-12-22T12:00:40;15.20;59.80
49385;DHT22;36795;45.028;38.968;2023-12-22T12:03:56;15.30;60.00
49385;DHT22;36795;45.028;38.968;2023-12-22T12:06:44;15.30;60.00
49385;DHT22;36795;45.028;38.968;2023-12-22T12:09:45;15.30;60.20
49385;DHT22;36795;45.028;38.968;2023-12-22T12:12:31;15.20;60.40
49385;DHT22;36795;45.028;38.968;2023-12-22T12:15:23;15.20;61.00
49385;DHT22;36795;45.028;38.968;2023-12-22T12:18:11;15.10;61.50
49385;DHT22;36795;45.028;38.968;2023-12-22T12:21:00;15.10;61.90
49385;DHT22;36795;45.028;38.968;2023-12-22T12:23:48;15.00;62.30
49385;DHT22;36795;45.028;38.968;2023-12-22T12:26:35;15.00;62.70
49385;DHT22;36795;45.028;38.968;2023-12-22T12:29:22;15.00;63.00
49385;DHT22;36795;45.028;38.968;2023-12-22T12:32:14;15.00;63.30
49385;DHT22;36795;45.028;38.968;2023-12-22T12:35:07;14.90;63.70
49385;DHT22;36795;45.028;38.968;2023-12-22T12:37:55;14.90;64.00
49385;DHT22;36795;45.028;38.968;2023-12-22T12:40:41;14.90;64.10
49385;DHT22;36795;45.028;38.968;2023-12-22T12:43:27;14.90;64.20
49385;DHT22;36795;45.028;38.968;2023-12-22T12:46:14;14.90;64.30
49385;DHT22;36795;45.028;38.968;2023-12-22T12:49:08;14.90;64.50
49385;DHT22;36795;45.028;38.968;2023-12-22T12:51:57;14.90;64.50
49385;DHT22;36795;45.028;38.968;2023-12-22T12:54:43;14.90;65.30
49385;DHT22;36795;45.028;38.968;2023-12-22T12:57:29;14.90;64.70
49385;DHT22;36795;45.028;38.968;2023-12-22T13:00:16;14.80;64.70
49385;DHT22;36795;45.028;38.968;2023-12-22T13:03:05;14.80;64.90
49385;DHT22;36795;45.028;38.968;2023-12-22T13:05:51;14.80;64.90
49385;DHT22;36795;45.028;38.968;2023-12-22T13:08:37;14.80;65.00
49385;DHT22;36795;45.028;38.968;2023-12-22T13:11:28;14.70;65.30
49385;DHT22;36795;45.028;38.968;2023-12-22T13:14:24;14.70;65.40
49385;DHT22;36795;45.028;38.968;2023-12-22T13:17:11;14.70;65.30
49385;DHT22;36795;45.028;38.968;2023-12-22T13:19:57;14.70;65.40
49385;DHT22;36795;45.028;38.968;2023-12-22T13:22:44;14.70;65.50
49385;DHT22;36795;45.028;38.968;2023-12-22T13:25:39;14.70;65.30
49385;DHT22;36795;45.028;38.968;2023-12-22T13:28:26;14.70;65.00
49385;DHT22;36795;45.028;38.968;2023-12-22T13:31:15;14.70;65.10
49385;DHT22;36795;45.028;38.968;2023-12-22T13:34:09;14.70;65.20
49385;DHT22;36795;45.028;38.968;2023-12-22T13:36:58;14.70;65.40
49385;DHT22;36795;45.028;38.968;2023-12-22T13:39:49;14.70;65.60
49385;DHT22;36795;45.028;38.968;2023-12-22T13:42:35;14.60;65.90
49385;DHT22;36795;45.028;38.968;2023-12-22T13:45:25;14.60;66.20
49385;DHT22;36795;45.028;38.968;2023-12-22T13:48:11;14.60;66.50
49385;DHT22;36795;45.028;38.968;2023-12-22T13:51:02;14.60;66.80
49385;DHT22;36795;45.028;38.968;2023-12-22T13:53:51;14.60;67.00
49385;DHT22;36795;45.028;38.968;2023-12-22T13:56:39;14.50;67.00
49385;DHT22;36795;45.028;38.968;2023-12-22T13:59:34;14.50;67.20
49385;DHT22;36795;45.028;38.968;2023-12-22T14:02:24;14.40;67.30
49385;DHT22;36795;45.028;38.968;2023-12-22T14:05:17;14.40;67.50
49385;DHT22;36795;45.028;38.968;2023-12-22T14:08:04;14.40;67.60
49385;DHT22;36795;45.028;38.968;2023-12-22T14:10:50;14.30;67.70
49385;DHT22;36795;45.028;38.968;2023-12-22T14:13:37;14.30;67.90
49385;DHT22;36795;45.028;38.968;2023-12-22T14:16:34;14.30;68.10
49385;DHT22;36795;45.028;38.968;2023-12-22T14:19:20;14.30;68.20
49385;DHT22;36795;45.028;38.968;2023-12-22T14:22:07;14.30;68.20
49385;DHT22;36795;45.028;38.968;2023-12-22T14:24:53;14.30;68.30
49385;DHT22;36795;45.028;38.968;2023-12-22T14:27:39;14.30;68.30
49385;DHT22;36795;45.028;38.968;2023-12-22T14:30:25;14.20;68.10
49385;DHT22;36795;45.028;38.968;2023-12-22T14:33:12;14.30;67.50
49385;DHT22;36795;45.028;38.968;2023-12-22T14:35:59;14.20;67.00
49385;DHT22;36795;45.028;38.968;2023-12-22T14:38:45;14.20;66.90
49385;DHT22;36795;45.028;38.968;2023-12-22T14:41:31;14.10;66.80
49385;DHT22;36795;45.028;38.968;2023-12-22T14:44:18;14.10;67.00
49385;DHT22;36795;45.028;38.968;2023-12-22T14:47:06;14.10;67.20
49385;DHT22;36795;45.028;38.968;2023-12-22T14:49:52;14.00;67.20
49385;DHT22;36795;45.028;38.968;2023-12-22T14:52:38;14.00;67.30
49385;DHT22;36795;45.028;38.968;2023-12-22T14:55:29;14.00;67.30
49385;DHT22;36795;45.028;38.968;2023-12-22T14:58:17;13.90;67.40
49385;DHT22;36795;45.028;38.968;2023-12-22T15:01:04;13.90;67.60
49385;DHT22;36795;45.028;38.968;2023-12-22T15:03:50;13.80;67.80
49385;DHT22;36795;45.028;38.968;2023-12-22T15:06:43;13.80;68.20
49385;DHT22;36795;45.028;38.968;2023-12-22T15:09:29;13.80;68.90
49385;DHT22;36795;45.028;38.968;2023-12-22T15:12:16;13.60;69.20
49385;DHT22;36795;45.028;38.968;2023-12-22T15:15:02;13.60;69.70
49385;DHT22;36795;45.028;38.968;2023-12-22T15:17:49;13.50;70.10
49385;DHT22;36795;45.028;38.968;2023-12-22T15:20:36;13.50;70.40
49385;DHT22;36795;45.028;38.968;2023-12-22T15:23:23;13.40;70.90
49385;DHT22;36795;45.028;38.968;2023-12-22T15:26:22;13.30;71.20
49385;DHT22;36795;45.028;38.968;2023-12-22T15:29:09;13.30;71.60
49385;DHT22;36795;45.028;38.968;2023-12-22T15:31:55;13.30;72.00
49385;DHT22;36795;45.028;38.968;2023-12-22T15:34:45;13.30;72.30
49385;DHT22;36795;45.028;38.968;2023-12-22T15:37:32;13.20;72.50
49385;DHT22;36795;45.028;38.968;2023-12-22T15:40:18;13.10;73.20
49385;DHT22;36795;45.028;38.968;2023-12-22T15:43:05;13.10;73.90
49385;DHT22;36795;45.028;38.968;2023-12-22T15:45:51;13.00;73.90
49385;DHT22;36795;45.028;38.968;2023-12-22T15:48:37;13.00;74.10
49385;DHT22;36795;45.028;38.968;2023-12-22T15:51:24;13.00;74.30
49385;DHT22;36795;45.028;38.968;2023-12-22T15:54:10;13.00;74.40
49385;DHT22;36795;45.028;38.968;2023-12-22T15:56:56;13.00;74.70
49385;DHT22;36795;45.028;38.968;2023-12-22T15:59:47;13.00;74.80
49385;DHT22;36795;45.028;38.968;2023-12-22T16:02:33;13.00;75.00
49385;DHT22;36795;45.028;38.968;2023-12-22T16:05:24;12.90;74.80
49385;DHT22;36795;45.028;38.968;2023-12-22T16:08:11;12.90;74.90
49385;DHT22;36795;45.028;38.968;2023-12-22T16:11:01;12.90;75.10
49385;DHT22;36795;45.028;38.968;2023-12-22T16:13:47;12.90;75.10
49385;DHT22;36795;45.028;38.968;2023-12-22T16:16:34;12.90;75.20
49385;DHT22;36795;45.028;38.968;2023-12-22T16:19:20;12.90;75.40
49385;DHT22;36795;45.028;38.968;2023-12-22T16:22:07;12.80;75.50
49385;DHT22;36795;45.028;38.968;2023-12-22T16:24:53;12.80;75.70
49385;DHT22;36795;45.028;38.968;2023-12-22T16:27:44;12.80;76.10
49385;DHT22;36795;45.028;38.968;2023-12-22T16:30:30;12.70;76.30
49385;DHT22;36795;45.028;38.968;2023-12-22T16:33:16;12.70;76.60
49385;DHT22;36795;45.028;38.968;2023-12-22T16:36:04;12.70;76.70
49385;DHT22;36795;45.028;38.968;2023-12-22T16:38:53;12.70;76.80
49385;DHT22;36795;45.028;38.968;2023-12-22T16:41:39;12.60;76.90
49385;DHT22;36795;45.028;38.968;2023-12-22T16:44:25;12.60;77.20
49385;DHT22;36795;45.028;38.968;2023-12-22T16:47:11;12.60;77.40
49385;DHT22;36795;45.028;38.968;2023-12-22T16:49:57;12.60;77.40
49385;DHT22;36795;45.028;38.968;2023-12-22T16:52:43;12.60;77.40
49385;DHT22;36795;45.028;38.968;2023-12-22T16:55:30;12.60;77.30
49385;DHT22;36795;45.028;38.968;2023-12-22T16:58:16;12.60;77.30
49385;DHT22;36795;45.028;38.968;2023-12-22T17:01:02;12.60;77.50
49385;DHT22;36795;45.028;38.968;2023-12-22T17:03:49;12.60;77.40
49385;DHT22;36795;45.028;38.968;2023-12-22T17:06:49;12.60;77.40
49385;DHT22;36795;45.028;38.968;2023-12-22T17:09:35;12.60;77.40
49385;DHT22;36795;45.028;38.968;2023-12-22T17:12:22;12.50;77.50
49385;DHT22;36795;45.028;38.968;2023-12-22T17:15:09;12.50;77.60
49385;DHT22;36795;45.028;38.968;2023-12-22T17:17:56;12.50;77.70
49385;DHT22;36795;45.028;38.968;2023-12-22T17:20:42;12.50;77.90
49385;DHT22;36795;45.028;38.968;2023-12-22T17:23:28;12.50;78.20